sensor_id;sensor_type;location;lat;lon;timestamp;temperature;humidity
2463;DHT22;1243;54.298;10.172;2024-02-26T00:01:40;3.00;1.00
2463;DHT22;1243;54.298;10.172;2024-02-26T00:04:05;2.90;1.00
2463;DHT22;1243;54.298;10.172;2024-02-26T00:06:32;2.90;1.00
2463;DHT22;1243;54.298;10.172;2024-02-26T00:08:58;2.90;1.00
2463;DHT22;1243;54.298;10.172;2024-02-26T00:11:24;2.80;1.00
2463;DHT22;1243;54.298;10.172;2024-02-26T00:13:49;2.80;1.00
2463;DHT22;1243;54.298;10.172;2024-02-26T00:16:15;2.70;1.00
2463;DHT22;1243;54.298;10.172;2024-02-26T00:18:41;2.70;1.00
2463;DHT22;1243;54.298;10.172;2024-02-26T00:21:06;2.70;1.00
2463;DHT22;1243;54.298;10.172;2024-02-26T00:23:32;2.60;1.00
2463;DHT22;1243;54.298;10.172;2024-02-26T00:25:58;2.60;1.00
2463;DHT22;1243;54.298;10.172;2024-02-26T00:28:23;2.60;1.00
2463;DHT22;1243;54.298;10.172;2024-02-26T00:30:50;2.60;1.00
2463;DHT22;1243;54.298;10.172;2024-02-26T00:33:21;2.50;1.00
2463;DHT22;1243;54.298;10.172;2024-02-26T00:35:48;2.50;1.00
2463;DHT22;1243;54.298;10.172;2024-02-26T00:38:13;2.40;1.00
2463;DHT22;1243;54.298;10.172;2024-02-26T00:40:39;2.40;1.00
2463;DHT22;1243;54.298;10.172;2024-02-26T00:43:06;2.40;1.00
2463;DHT22;1243;54.298;10.172;2024-02-26T00:45:32;2.40;1.00
2463;DHT22;1243;54.298;10.172;2024-02-26T00:47:58;2.30;1.00
2463;DHT22;1243;54.298;10.172;2024-02-26T00:50:26;2.30;1.00
2463;DHT22;1243;54.298;10.172;2024-02-26T00:52:52;2.30;1.00
2463;DHT22;1243;54.298;10.172;2024-02-26T00:55:18;2.30;1.00
2463;DHT22;1243;54.298;10.172;2024-02-26T00:57:43;2.30;1.00
2463;DHT22;1243;54.298;10.172;2024-02-26T01:00:09;2.20;1.00
2463;DHT22;1243;54.298;10.172;2024-02-26T01:02:35;2.20;1.00
2463;DHT22;1243;54.298;10.172;2024-02-26T01:05:01;2.20;1.00
2463;DHT22;1243;54.298;10.172;2024-02-26T01:07:26;2.20;1.00
2463;DHT22;1243;54.298;10.172;2024-02-26T01:09:52;2.10;1.00
2463;DHT22;1243;54.298;10.172;2024-02-26T01:12:18;2.10;99.90
2463;DHT22;1243;54.298;10.172;2024-02-26T01:14:43;2.10;99.90
2463;DHT22;1243;54.298;10.172;2024-02-26T01:17:09;2.10;99.90
2463;DHT22;1243;54.298;10.172;2024-02-26T01:19:35;2.10;99.90
2463;DHT22;1243;54.298;10.172;2024-02-26T01:22:00;2.00;99.90
2463;DHT22;1243;54.298;10.172;2024-02-26T01:24:26;2.10;99.90
2463;DHT22;1243;54.298;10.172;2024-02-26T01:26:52;2.00;99.90
2463;DHT22;1243;54.298;10.172;2024-02-26T01:29:18;1.90;99.90
2463;DHT22;1243;54.298;10.172;2024-02-26T01:31:43;1.90;99.90
2463;DHT22;1243;54.298;10.172;2024-02-26T01:34:09;1.90;99.90
2463;DHT22;1243;54.298;10.172;2024-02-26T01:36:35;1.90;99.90
2463;DHT22;1243;54.298;10.172;2024-02-26T01:39:01;2.00;99.90
2463;DHT22;1243;54.298;10.172;2024-02-26T01:41:29;2.00;99.90
2463;DHT22;1243;54.298;10.172;2024-02-26T01:43:54;2.00;99.90
2463;DHT22;1243;54.298;10.172;2024-02-26T01:46:20;2.00;99.90
2463;DHT22;1243;54.298;10.172;2024-02-26T01:48:47;2.00;99.90
2463;DHT22;1243;54.298;10.172;2024-02-26T01:51:15;1.90;99.90
2463;DHT22;1243;54.298;10.172;2024-02-26T01:53:43;1.90;99.90
2463;DHT22;1243;54.298;10.172;2024-02-26T01:56:09;2.00;99.90
2463;DHT22;1243;54.298;10.172;2024-02-26T01:58:36;2.00;99.90
2463;DHT22;1243;54.298;10.172;2024-02-26T02:01:02;2.00;99.90
2463;DHT22;1243;54.298;10.172;2024-02-26T02:03:28;2.00;99.90
2463;DHT22;1243;54.298;10.172;2024-02-26T02:05:56;2.00;99.90
2463;DHT22;1243;54.298;10.172;2024-02-26T02:08:23;2.00;99.90
2463;DHT22;1243;54.298;10.172;2024-02-26T02:10:49;2.00;99.90
2463;DHT22;1243;54.298;10.172;2024-02-26T02:13:15;1.90;99.90
2463;DHT22;1243;54.298;10.172;2024-02-26T02:15:41;1.90;99.90
2463;DHT22;1243;54.298;10.172;2024-02-26T02:18:07;1.80;99.90
2463;DHT22;1243;54.298;10.172;2024-02-26T02:20:33;1.80;99.90
2463;DHT22;1243;54.298;10.172;2024-02-26T02:23:02;1.80;99.90
2463;DHT22;1243;54.298;10.172;2024-02-26T02:25:28;1.80;99.90
2463;DHT22;1243;54.298;10.172;2024-02-26T02:27:55;1.80;99.90
2463;DHT22;1243;54.298;10.172;2024-02-26T02:30:25;1.80;99.90
2463;DHT22;1243;54.298;10.172;2024-02-26T02:32:52;1.90;99.90
2463;DHT22;1243;54.298;10.172;2024-02-26T02:35:18;1.90;99.90
2463;DHT22;1243;54.298;10.172;2024-02-26T02:37:44;1.90;99.90
2463;DHT22;1243;54.298;10.172;2024-02-26T02:40:10;1.90;99.90
2463;DHT22;1243;54.298;10.172;2024-02-26T02:42:36;1.90;99.90
2463;DHT22;1243;54.298;10.172;2024-02-26T02:45:01;1.90;99.90
2463;DHT22;1243;54.298;10.172;2024-02-26T02:47:27;1.90;99.90
2463;DHT22;1243;54.298;10.172;2024-02-26T02:49:53;2.00;99.90
2463;DHT22;1243;54.298;10.172;2024-02-26T02:52:18;2.00;99.90
2463;DHT22;1243;54.298;10.172;2024-02-26T02:54:44;2.00;99.90
2463;DHT22;1243;54.298;10.172;2024-02-26T02:57:10;2.00;99.90
2463;DHT22;1243;54.298;10.172;2024-02-26T02:59:36;2.00;99.90
2463;DHT22;1243;54.298;10.172;2024-02-26T03:02:02;2.00;99.90
2463;DHT22;1243;54.298;10.172;2024-02-26T03:04:28;2.00;99.90
2463;DHT22;1243;54.298;10.172;2024-02-26T03:06:55;2.00;99.90
2463;DHT22;1243;54.298;10.172;2024-02-26T03:09:20;2.00;99.90
2463;DHT22;1243;54.298;10.172;2024-02-26T03:11:46;1.90;99.90
2463;DHT22;1243;54.298;10.172;2024-02-26T03:14:12;1.80;99.90
2463;DHT22;1243;54.298;10.172;2024-02-26T03:16:38;1.80;99.90
2463;DHT22;1243;54.298;10.172;2024-02-26T03:19:03;1.70;99.90
2463;DHT22;1243;54.298;10.172;2024-02-26T03:21:29;1.70;99.90
2463;DHT22;1243;54.298;10.172;2024-02-26T03:23:55;1.60;99.90
2463;DHT22;1243;54.298;10.172;2024-02-26T03:26:20;1.60;99.90
2463;DHT22;1243;54.298;10.172;2024-02-26T03:28:47;1.60;99.90
2463;DHT22;1243;54.298;10.172;2024-02-26T03:31:13;1.60;99.90
2463;DHT22;1243;54.298;10.172;2024-02-26T03:33:38;1.50;99.90
2463;DHT22;1243;54.298;10.172;2024-02-26T03:36:04;1.50;99.90
2463;DHT22;1243;54.298;10.172;2024-02-26T03:38:30;1.50;99.90
2463;DHT22;1243;54.298;10.172;2024-02-26T03:40:56;1.40;99.90
2463;DHT22;1243;54.298;10.172;2024-02-26T03:43:22;1.30;99.90
2463;DHT22;1243;54.298;10.172;2024-02-26T03:45:47;1.30;99.90
2463;DHT22;1243;54.298;10.172;2024-02-26T03:48:13;1.30;99.90
2463;DHT22;1243;54.298;10.172;2024-02-26T03:50:39;1.30;99.90
2463;DHT22;1243;54.298;10.172;2024-02-26T03:53:04;1.30;99.90
2463;DHT22;1243;54.298;10.172;2024-02-26T03:55:30;1.30;99.90
2463;DHT22;1243;54.298;10.172;2024-02-26T03:57:56;1.30;99.90
2463;DHT22;1243;54.298;10.172;2024-02-26T04:00:22;1.30;99.90
2463;DHT22;1243;54.298;10.172;2024-02-26T04:02:47;1.40;99.90
2463;DHT22;1243;54.298;10.172;2024-02-26T04:05:13;1.40;1.00
2463;DHT22;1243;54.298;10.172;2024-02-26T04:07:40;1.40;1.00
2463;DHT22;1243;54.298;10.172;2024-02-26T04:10:12;1.50;1.00
2463;DHT22;1243;54.298;10.172;2024-02-26T04:12:39;1.40;1.00
2463;DHT22;1243;54.298;10.172;2024-02-26T04:15:08;1.30;1.00
2463;DHT22;1243;54.298;10.172;2024-02-26T04:17:35;1.30;1.00
2463;DHT22;1243;54.298;10.172;2024-02-26T04:20:01;1.30;1.00
2463;DHT22;1243;54.298;10.172;2024-02-26T04:22:27;1.30;1.00
2463;DHT22;1243;54.298;10.172;2024-02-26T04:24:53;1.30;1.00
2463;DHT22;1243;54.298;10.172;2024-02-26T04:27:18;1.20;99.90
2463;DHT22;1243;54.298;10.172;2024-02-26T04:29:44;1.10;99.90
2463;DHT22;1243;54.298;10.172;2024-02-26T04:32:10;1.10;99.90
2463;DHT22;1243;54.298;10.172;2024-02-26T04:34:35;1.10;99.90
2463;DHT22;1243;54.298;10.172;2024-02-26T04:37:01;1.10;99.90
2463;DHT22;1243;54.298;10.172;2024-02-26T04:39:27;1.10;99.90
2463;DHT22;1243;54.298;10.172;2024-02-26T04:41:52;1.10;99.90
2463;DHT22;1243;54.298;10.172;2024-02-26T04:44:18;1.00;99.90
2463;DHT22;1243;54.298;10.172;2024-02-26T04:46:44;1.00;99.90
2463;DHT22;1243;54.298;10.172;2024-02-26T04:49:09;1.00;99.90
2463;DHT22;1243;54.298;10.172;2024-02-26T04:51:35;1.00;99.90
2463;DHT22;1243;54.298;10.172;2024-02-26T04:54:00;1.00;99.90
2463;DHT22;1243;54.298;10.172;2024-02-26T04:56:26;1.00;99.90
2463;DHT22;1243;54.298;10.172;2024-02-26T04:58:52;1.10;99.90
2463;DHT22;1243;54.298;10.172;2024-02-26T05:01:18;1.10;99.90
2463;DHT22;1243;54.298;10.172;2024-02-26T05:03:44;1.10;99.90
2463;DHT22;1243;54.298;10.172;2024-02-26T05:06:10;1.10;99.90
2463;DHT22;1243;54.298;10.172;2024-02-26T05:08:36;1.10;99.90
2463;DHT22;1243;54.298;10.172;2024-02-26T05:11:03;1.10;99.90
2463;DHT22;1243;54.298;10.172;2024-02-26T05:13:29;1.10;99.90
2463;DHT22;1243;54.298;10.172;2024-02-26T05:15:55;1.10;99.90
2463;DHT22;1243;54.298;10.172;2024-02-26T05:18:22;1.10;99.90
2463;DHT22;1243;54.298;10.172;2024-02-26T05:20:48;1.10;99.90
2463;DHT22;1243;54.298;10.172;2024-02-26T05:23:13;1.10;99.90
2463;DHT22;1243;54.298;10.172;2024-02-26T05:25:39;1.00;99.90
2463;DHT22;1243;54.298;10.172;2024-02-26T05:28:05;1.00;99.90
2463;DHT22;1243;54.298;10.172;2024-02-26T05:30:31;0.90;99.90
2463;DHT22;1243;54.298;10.172;2024-02-26T05:32:57;0.90;99.90
2463;DHT22;1243;54.298;10.172;2024-02-26T05:35:22;0.90;99.90
2463;DHT22;1243;54.298;10.172;2024-02-26T05:37:48;0.90;99.90
2463;DHT22;1243;54.298;10.172;2024-02-26T05:40:14;0.80;99.90
2463;DHT22;1243;54.298;10.172;2024-02-26T05:42:40;0.80;99.90
2463;DHT22;1243;54.298;10.172;2024-02-26T05:45:06;0.80;99.90
2463;DHT22;1243;54.298;10.172;2024-02-26T05:47:33;0.80;99.90
2463;DHT22;1243;54.298;10.172;2024-02-26T05:49:58;0.90;99.90
2463;DHT22;1243;54.298;10.172;2024-02-26T05:52:29;0.90;99.90
2463;DHT22;1243;54.298;10.172;2024-02-26T05:54:58;0.90;99.90
2463;DHT22;1243;54.298;10.172;2024-02-26T05:57:23;0.90;99.90
2463;DHT22;1243;54.298;10.172;2024-02-26T05:59:49;0.90;99.90
2463;DHT22;1243;54.298;10.172;2024-02-26T06:02:15;0.90;99.90
2463;DHT22;1243;54.298;10.172;2024-02-26T06:04:41;0.90;99.90
2463;DHT22;1243;54.298;10.172;2024-02-26T06:07:06;0.90;99.90
2463;DHT22;1243;54.298;10.172;2024-02-26T06:09:32;0.90;99.90
2463;DHT22;1243;54.298;10.172;2024-02-26T06:11:58;1.00;99.90
2463;DHT22;1243;54.298;10.172;2024-02-26T06:14:23;0.90;99.90
2463;DHT22;1243;54.298;10.172;2024-02-26T06:16:50;0.90;99.90
2463;DHT22;1243;54.298;10.172;2024-02-26T06:19:15;0.90;99.90
2463;DHT22;1243;54.298;10.172;2024-02-26T06:21:41;0.90;99.90
2463;DHT22;1243;54.298;10.172;2024-02-26T06:24:07;0.90;99.90
2463;DHT22;1243;54.298;10.172;2024-02-26T06:26:32;0.90;99.90
2463;DHT22;1243;54.298;10.172;2024-02-26T06:28:59;0.90;99.90
2463;DHT22;1243;54.298;10.172;2024-02-26T06:31:24;0.90;99.90
2463;DHT22;1243;54.298;10.172;2024-02-26T06:33:53;0.90;99.90
2463;DHT22;1243;54.298;10.172;2024-02-26T06:36:19;1.00;99.90
2463;DHT22;1243;54.298;10.172;2024-02-26T06:38:45;1.00;99.90
2463;DHT22;1243;54.298;10.172;2024-02-26T06:41:10;0.90;99.90
2463;DHT22;1243;54.298;10.172;2024-02-26T06:43:37;0.90;99.90
2463;DHT22;1243;54.298;10.172;2024-02-26T06:46:02;1.00;99.90
2463;DHT22;1243;54.298;10.172;2024-02-26T06:48:28;1.00;99.90
2463;DHT22;1243;54.298;10.172;2024-02-26T06:50:54;1.10;99.90
2463;DHT22;1243;54.298;10.172;2024-02-26T06:53:20;1.10;99.90
2463;DHT22;1243;54.298;10.172;2024-02-26T06:55:45;1.10;99.90
2463;DHT22;1243;54.298;10.172;2024-02-26T06:58:11;1.20;99.90
2463;DHT22;1243;54.298;10.172;2024-02-26T07:00:37;1.20;99.90
2463;DHT22;1243;54.298;10.172;2024-02-26T07:03:02;1.20;99.90
2463;DHT22;1243;54.298;10.172;2024-02-26T07:05:29;1.30;99.90
2463;DHT22;1243;54.298;10.172;2024-02-26T07:07:54;1.40;99.90
2463;DHT22;1243;54.298;10.172;2024-02-26T07:10:20;1.40;99.90
2463;DHT22;1243;54.298;10.172;2024-02-26T07:12:46;1.40;99.90
2463;DHT22;1243;54.298;10.172;2024-02-26T07:15:12;1.40;99.90
2463;DHT22;1243;54.298;10.172;2024-02-26T07:17:38;1.40;99.90
2463;DHT22;1243;54.298;10.172;2024-02-26T07:20:08;1.50;99.90
2463;DHT22;1243;54.298;10.172;2024-02-26T07:22:33;1.40;99.90
2463;DHT22;1243;54.298;10.172;2024-02-26T07:24:59;1.40;99.90
2463;DHT22;1243;54.298;10.172;2024-02-26T07:27:25;1.50;99.90
2463;DHT22;1243;54.298;10.172;2024-02-26T07:29:50;1.60;99.90
2463;DHT22;1243;54.298;10.172;2024-02-26T07:32:17;1.60;99.90
2463;DHT22;1243;54.298;10.172;2024-02-26T07:34:43;1.70;1.00
2463;DHT22;1243;54.298;10.172;2024-02-26T07:37:10;1.70;1.00
2463;DHT22;1243;54.298;10.172;2024-02-26T07:39:37;1.90;1.00
2463;DHT22;1243;54.298;10.172;2024-02-26T07:42:03;1.90;1.00
2463;DHT22;1243;54.298;10.172;2024-02-26T07:44:28;1.90;1.00
2463;DHT22;1243;54.298;10.172;2024-02-26T07:46:54;1.90;1.00
2463;DHT22;1243;54.298;10.172;2024-02-26T07:49:20;2.00;1.00
2463;DHT22;1243;54.298;10.172;2024-02-26T07:51:45;2.00;1.00
2463;DHT22;1243;54.298;10.172;2024-02-26T07:54:11;2.10;1.00
2463;DHT22;1243;54.298;10.172;2024-02-26T07:56:37;2.10;1.00
2463;DHT22;1243;54.298;10.172;2024-02-26T07:59:03;2.10;1.00
2463;DHT22;1243;54.298;10.172;2024-02-26T08:01:29;2.20;1.00
2463;DHT22;1243;54.298;10.172;2024-02-26T08:03:54;2.30;1.00
2463;DHT22;1243;54.298;10.172;2024-02-26T08:06:21;2.30;1.00
2463;DHT22;1243;54.298;10.172;2024-02-26T08:08:47;2.30;1.00
2463;DHT22;1243;54.298;10.172;2024-02-26T08:11:14;2.20;1.00
2463;DHT22;1243;54.298;10.172;2024-02-26T08:13:41;2.20;1.00
2463;DHT22;1243;54.298;10.172;2024-02-26T08:16:07;2.20;1.00
2463;DHT22;1243;54.298;10.172;2024-02-26T08:18:32;2.30;1.00
2463;DHT22;1243;54.298;10.172;2024-02-26T08:20:58;2.30;1.00
2463;DHT22;1243;54.298;10.172;2024-02-26T08:23:24;2.30;1.00
2463;DHT22;1243;54.298;10.172;2024-02-26T08:25:50;2.30;1.00
2463;DHT22;1243;54.298;10.172;2024-02-26T08:28:16;2.40;1.00
2463;DHT22;1243;54.298;10.172;2024-02-26T08:30:43;2.40;1.00
2463;DHT22;1243;54.298;10.172;2024-02-26T08:33:09;2.40;1.00
2463;DHT22;1243;54.298;10.172;2024-02-26T08:35:36;2.50;26.70
2463;DHT22;1243;54.298;10.172;2024-02-26T08:38:01;2.60;60.20
2463;DHT22;1243;54.298;10.172;2024-02-26T08:40:28;2.60;84.70
2463;DHT22;1243;54.298;10.172;2024-02-26T08:42:54;2.70;99.90
2463;DHT22;1243;54.298;10.172;2024-02-26T08:45:20;2.80;99.90
2463;DHT22;1243;54.298;10.172;2024-02-26T08:47:46;2.90;99.90
2463;DHT22;1243;54.298;10.172;2024-02-26T08:50:12;2.90;99.90
2463;DHT22;1243;54.298;10.172;2024-02-26T08:52:38;2.90;99.90
2463;DHT22;1243;54.298;10.172;2024-02-26T08:55:04;3.00;99.90
2463;DHT22;1243;54.298;10.172;2024-02-26T08:57:31;3.00;99.90
2463;DHT22;1243;54.298;10.172;2024-02-26T08:59:59;3.00;99.90
2463;DHT22;1243;54.298;10.172;2024-02-26T09:02:26;3.10;99.90
2463;DHT22;1243;54.298;10.172;2024-02-26T09:04:51;3.20;99.90
2463;DHT22;1243;54.298;10.172;2024-02-26T09:07:19;3.30;99.90
2463;DHT22;1243;54.298;10.172;2024-02-26T09:09:45;3.30;99.90
2463;DHT22;1243;54.298;10.172;2024-02-26T09:12:11;3.30;99.90
2463;DHT22;1243;54.298;10.172;2024-02-26T09:14:37;3.40;99.90
2463;DHT22;1243;54.298;10.172;2024-02-26T09:17:03;3.50;99.90
2463;DHT22;1243;54.298;10.172;2024-02-26T09:19:29;3.60;99.90
2463;DHT22;1243;54.298;10.172;2024-02-26T09:21:54;3.50;99.90
2463;DHT22;1243;54.298;10.172;2024-02-26T09:24:24;3.40;99.90
2463;DHT22;1243;54.298;10.172;2024-02-26T09:26:50;3.40;99.90
2463;DHT22;1243;54.298;10.172;2024-02-26T09:29:16;3.50;99.90
2463;DHT22;1243;54.298;10.172;2024-02-26T09:31:42;3.50;99.90
2463;DHT22;1243;54.298;10.172;2024-02-26T09:34:08;3.50;99.90
2463;DHT22;1243;54.298;10.172;2024-02-26T09:36:34;3.40;99.90
2463;DHT22;1243;54.298;10.172;2024-02-26T09:38:59;3.40;99.90
2463;DHT22;1243;54.298;10.172;2024-02-26T09:41:28;3.40;99.90
2463;DHT22;1243;54.298;10.172;2024-02-26T09:43:57;3.40;99.90
2463;DHT22;1243;54.298;10.172;2024-02-26T09:46:25;3.40;99.90
2463;DHT22;1243;54.298;10.172;2024-02-26T09:48:50;3.50;99.90
2463;DHT22;1243;54.298;10.172;2024-02-26T09:51:16;3.60;99.90
2463;DHT22;1243;54.298;10.172;2024-02-26T09:53:44;3.70;99.90
2463;DHT22;1243;54.298;10.172;2024-02-26T09:56:11;3.80;99.90
2463;DHT22;1243;54.298;10.172;2024-02-26T09:58:39;3.80;99.90
2463;DHT22;1243;54.298;10.172;2024-02-26T10:01:11;3.90;99.90
2463;DHT22;1243;54.298;10.172;2024-02-26T10:03:40;3.90;99.90
2463;DHT22;1243;54.298;10.172;2024-02-26T10:06:10;3.90;99.90
2463;DHT22;1243;54.298;10.172;2024-02-26T10:08:35;3.80;99.90
2463;DHT22;1243;54.298;10.172;2024-02-26T10:11:03;3.80;99.90
2463;DHT22;1243;54.298;10.172;2024-02-26T10:13:30;3.90;99.90
2463;DHT22;1243;54.298;10.172;2024-02-26T10:15:55;4.00;99.90
2463;DHT22;1243;54.298;10.172;2024-02-26T10:18:23;4.00;99.90
2463;DHT22;1243;54.298;10.172;2024-02-26T10:21:01;4.10;99.90
2463;DHT22;1243;54.298;10.172;2024-02-26T10:23:27;4.10;99.90
2463;DHT22;1243;54.298;10.172;2024-02-26T10:25:56;4.20;99.90
2463;DHT22;1243;54.298;10.172;2024-02-26T10:28:23;4.30;99.90
2463;DHT22;1243;54.298;10.172;2024-02-26T10:30:48;4.20;99.90
2463;DHT22;1243;54.298;10.172;2024-02-26T10:33:14;4.20;99.90
2463;DHT22;1243;54.298;10.172;2024-02-26T10:35:46;4.20;99.90
2463;DHT22;1243;54.298;10.172;2024-02-26T10:38:12;4.20;99.90
2463;DHT22;1243;54.298;10.172;2024-02-26T10:40:39;4.10;99.90
2463;DHT22;1243;54.298;10.172;2024-02-26T10:43:04;4.20;99.90
2463;DHT22;1243;54.298;10.172;2024-02-26T10:45:32;4.30;99.90
2463;DHT22;1243;54.298;10.172;2024-02-26T10:47:57;4.40;99.90
2463;DHT22;1243;54.298;10.172;2024-02-26T10:50:24;4.40;1.00
2463;DHT22;1243;54.298;10.172;2024-02-26T10:52:50;4.40;1.00
2463;DHT22;1243;54.298;10.172;2024-02-26T10:55:17;4.50;1.00
2463;DHT22;1243;54.298;10.172;2024-02-26T10:57:46;4.40;1.00
2463;DHT22;1243;54.298;10.172;2024-02-26T11:00:15;4.40;99.90
2463;DHT22;1243;54.298;10.172;2024-02-26T11:02:41;4.30;99.90
2463;DHT22;1243;54.298;10.172;2024-02-26T11:05:08;4.40;99.90
2463;DHT22;1243;54.298;10.172;2024-02-26T11:07:37;4.50;1.00
2463;DHT22;1243;54.298;10.172;2024-02-26T11:10:05;4.50;1.00
2463;DHT22;1243;54.298;10.172;2024-02-26T11:12:35;4.50;99.90
2463;DHT22;1243;54.298;10.172;2024-02-26T11:15:04;4.50;99.90
2463;DHT22;1243;54.298;10.172;2024-02-26T11:17:30;4.40;99.90
2463;DHT22;1243;54.298;10.172;2024-02-26T11:19:58;4.40;99.90
2463;DHT22;1243;54.298;10.172;2024-02-26T11:22:25;4.30;99.90
2463;DHT22;1243;54.298;10.172;2024-02-26T11:24:55;4.30;99.90
2463;DHT22;1243;54.298;10.172;2024-02-26T11:27:38;4.40;99.90
2463;DHT22;1243;54.298;10.172;2024-02-26T11:30:08;4.50;99.90
2463;DHT22;1243;54.298;10.172;2024-02-26T11:32:34;4.50;1.00
2463;DHT22;1243;54.298;10.172;2024-02-26T11:35:00;4.50;1.00
2463;DHT22;1243;54.298;10.172;2024-02-26T11:37:26;4.70;1.00
2463;DHT22;1243;54.298;10.172;2024-02-26T11:39:52;4.80;1.00
2463;DHT22;1243;54.298;10.172;2024-02-26T11:42:23;4.80;1.00
2463;DHT22;1243;54.298;10.172;2024-02-26T11:44:49;4.80;1.00
2463;DHT22;1243;54.298;10.172;2024-02-26T11:47:19;4.90;1.00
2463;DHT22;1243;54.298;10.172;2024-02-26T11:49:45;5.10;1.00
2463;DHT22;1243;54.298;10.172;2024-02-26T11:52:13;5.00;1.00
2463;DHT22;1243;54.298;10.172;2024-02-26T11:54:44;5.10;1.00
2463;DHT22;1243;54.298;10.172;2024-02-26T11:57:29;5.10;1.00
2463;DHT22;1243;54.298;10.172;2024-02-26T12:00:11;5.20;1.00
2463;DHT22;1243;54.298;10.172;2024-02-26T12:05:19;5.50;1.00
2463;DHT22;1243;54.298;10.172;2024-02-26T12:07:49;5.90;1.00
2463;DHT22;1243;54.298;10.172;2024-02-26T12:12:41;6.70;1.00
2463;DHT22;1243;54.298;10.172;2024-02-26T12:15:08;6.80;1.00
2463;DHT22;1243;54.298;10.172;2024-02-26T12:17:34;7.20;99.90
2463;DHT22;1243;54.298;10.172;2024-02-26T12:20:10;7.60;99.90
2463;DHT22;1243;54.298;10.172;2024-02-26T12:22:41;7.60;99.90
2463;DHT22;1243;54.298;10.172;2024-02-26T12:25:09;7.30;99.90
2463;DHT22;1243;54.298;10.172;2024-02-26T12:27:35;7.30;99.90
2463;DHT22;1243;54.298;10.172;2024-02-26T12:30:02;7.40;99.90
2463;DHT22;1243;54.298;10.172;2024-02-26T12:32:28;7.50;99.90
2463;DHT22;1243;54.298;10.172;2024-02-26T12:34:54;7.30;99.90
2463;DHT22;1243;54.298;10.172;2024-02-26T12:37:20;7.20;99.90
2463;DHT22;1243;54.298;10.172;2024-02-26T12:39:46;7.00;99.90
2463;DHT22;1243;54.298;10.172;2024-02-26T12:42:12;7.10;99.90
2463;DHT22;1243;54.298;10.172;2024-02-26T12:44:37;7.20;99.90
2463;DHT22;1243;54.298;10.172;2024-02-26T12:47:04;7.10;99.90
2463;DHT22;1243;54.298;10.172;2024-02-26T12:49:30;7.00;99.90
2463;DHT22;1243;54.298;10.172;2024-02-26T12:51:57;6.90;96.50
2463;DHT22;1243;54.298;10.172;2024-02-26T12:54:30;6.90;94.00
2463;DHT22;1243;54.298;10.172;2024-02-26T12:56:57;6.70;78.70
2463;DHT22;1243;54.298;10.172;2024-02-26T12:59:23;6.70;78.70
2463;DHT22;1243;54.298;10.172;2024-02-26T13:01:49;6.60;67.50
2463;DHT22;1243;54.298;10.172;2024-02-26T13:04:15;6.40;50.40
2463;DHT22;1243;54.298;10.172;2024-02-26T13:06:42;6.40;43.70
2463;DHT22;1243;54.298;10.172;2024-02-26T13:09:07;6.30;29.60
2463;DHT22;1243;54.298;10.172;2024-02-26T13:11:34;6.30;29.60
2463;DHT22;1243;54.298;10.172;2024-02-26T13:14:00;6.30;32.80
2463;DHT22;1243;54.298;10.172;2024-02-26T13:16:26;6.40;40.90
2463;DHT22;1243;54.298;10.172;2024-02-26T13:18:53;6.40;29.70
2463;DHT22;1243;54.298;10.172;2024-02-26T13:21:19;6.30;29.60
2463;DHT22;1243;54.298;10.172;2024-02-26T13:23:49;6.20;23.50
2463;DHT22;1243;54.298;10.172;2024-02-26T13:26:15;6.30;29.60
2463;DHT22;1243;54.298;10.172;2024-02-26T13:28:41;6.30;29.60
2463;DHT22;1243;54.298;10.172;2024-02-26T13:31:08;6.30;29.60
2463;DHT22;1243;54.298;10.172;2024-02-26T13:33:34;6.20;29.50
2463;DHT22;1243;54.298;10.172;2024-02-26T13:36:00;6.20;29.50
2463;DHT22;1243;54.298;10.172;2024-02-26T13:38:27;6.20;27.40
2463;DHT22;1243;54.298;10.172;2024-02-26T13:40:53;6.20;29.50
2463;DHT22;1243;54.298;10.172;2024-02-26T13:43:19;6.10;19.60
2463;DHT22;1243;54.298;10.172;2024-02-26T13:45:45;6.10;14.20
2463;DHT22;1243;54.298;10.172;2024-02-26T13:48:11;6.20;19.30
2463;DHT22;1243;54.298;10.172;2024-02-26T13:50:38;6.20;18.60
2463;DHT22;1243;54.298;10.172;2024-02-26T13:53:04;6.20;16.50
2463;DHT22;1243;54.298;10.172;2024-02-26T13:55:31;6.10;1.80
2463;DHT22;1243;54.298;10.172;2024-02-26T13:57:58;6.00;1.00
2463;DHT22;1243;54.298;10.172;2024-02-26T14:00:26;6.00;1.00
2463;DHT22;1243;54.298;10.172;2024-02-26T14:02:52;6.10;1.00
2463;DHT22;1243;54.298;10.172;2024-02-26T14:05:17;6.00;1.00
2463;DHT22;1243;54.298;10.172;2024-02-26T14:07:43;6.00;1.00
2463;DHT22;1243;54.298;10.172;2024-02-26T14:10:11;6.10;5.90
2463;DHT22;1243;54.298;10.172;2024-02-26T14:12:38;6.20;4.30
2463;DHT22;1243;54.298;10.172;2024-02-26T14:15:06;6.20;1.00
2463;DHT22;1243;54.298;10.172;2024-02-26T14:17:32;6.20;1.00
2463;DHT22;1243;54.298;10.172;2024-02-26T14:19:58;6.20;1.00
2463;DHT22;1243;54.298;10.172;2024-02-26T14:22:23;6.30;1.00
2463;DHT22;1243;54.298;10.172;2024-02-26T14:24:52;6.20;1.00
2463;DHT22;1243;54.298;10.172;2024-02-26T14:27:17;6.20;1.00
2463;DHT22;1243;54.298;10.172;2024-02-26T14:29:47;6.10;1.00
2463;DHT22;1243;54.298;10.172;2024-02-26T14:32:13;6.00;1.00
2463;DHT22;1243;54.298;10.172;2024-02-26T14:34:39;6.00;1.00
2463;DHT22;1243;54.298;10.172;2024-02-26T14:37:05;5.90;1.00
2463;DHT22;1243;54.298;10.172;2024-02-26T14:39:34;5.90;1.00
2463;DHT22;1243;54.298;10.172;2024-02-26T14:42:00;5.90;1.00
2463;DHT22;1243;54.298;10.172;2024-02-26T14:44:26;6.00;1.00
2463;DHT22;1243;54.298;10.172;2024-02-26T14:46:52;6.00;1.00
2463;DHT22;1243;54.298;10.172;2024-02-26T14:49:18;6.10;1.00
2463;DHT22;1243;54.298;10.172;2024-02-26T14:51:44;6.30;1.00
2463;DHT22;1243;54.298;10.172;2024-02-26T14:54:13;6.40;1.00
2463;DHT22;1243;54.298;10.172;2024-02-26T14:56:39;6.40;1.00
2463;DHT22;1243;54.298;10.172;2024-02-26T14:59:05;6.40;1.00
2463;DHT22;1243;54.298;10.172;2024-02-26T15:01:32;6.40;1.00
2463;DHT22;1243;54.298;10.172;2024-02-26T15:03:58;6.30;1.00
2463;DHT22;1243;54.298;10.172;2024-02-26T15:06:24;6.30;1.00
2463;DHT22;1243;54.298;10.172;2024-02-26T15:08:50;6.20;1.00
2463;DHT22;1243;54.298;10.172;2024-02-26T15:11:15;6.10;1.00
2463;DHT22;1243;54.298;10.172;2024-02-26T15:13:42;6.10;1.00
2463;DHT22;1243;54.298;10.172;2024-02-26T15:16:07;6.00;1.00
2463;DHT22;1243;54.298;10.172;2024-02-26T15:18:36;5.90;1.00
2463;DHT22;1243;54.298;10.172;2024-02-26T15:21:02;5.90;1.00
2463;DHT22;1243;54.298;10.172;2024-02-26T15:23:28;5.90;1.00
2463;DHT22;1243;54.298;10.172;2024-02-26T15:25:54;5.80;1.00
2463;DHT22;1243;54.298;10.172;2024-02-26T15:28:20;5.80;1.00
2463;DHT22;1243;54.298;10.172;2024-02-26T15:30:46;5.70;1.00
2463;DHT22;1243;54.298;10.172;2024-02-26T15:33:13;5.80;1.00
2463;DHT22;1243;54.298;10.172;2024-02-26T15:35:40;5.70;1.00
2463;DHT22;1243;54.298;10.172;2024-02-26T15:38:07;5.70;1.00
2463;DHT22;1243;54.298;10.172;2024-02-26T15:40:33;5.70;1.00
2463;DHT22;1243;54.298;10.172;2024-02-26T15:42:59;5.70;1.00
2463;DHT22;1243;54.298;10.172;2024-02-26T15:45:24;5.60;1.00
2463;DHT22;1243;54.298;10.172;2024-02-26T15:47:51;5.60;1.00
2463;DHT22;1243;54.298;10.172;2024-02-26T15:50:17;5.60;1.00
2463;DHT22;1243;54.298;10.172;2024-02-26T15:52:42;5.50;1.00
2463;DHT22;1243;54.298;10.172;2024-02-26T15:55:11;5.50;1.00
2463;DHT22;1243;54.298;10.172;2024-02-26T15:57:37;5.50;1.00
2463;DHT22;1243;54.298;10.172;2024-02-26T16:00:03;5.50;1.00
2463;DHT22;1243;54.298;10.172;2024-02-26T16:02:31;5.50;1.00
2463;DHT22;1243;54.298;10.172;2024-02-26T16:04:57;5.50;1.00
2463;DHT22;1243;54.298;10.172;2024-02-26T16:07:27;5.40;1.00